Terminal Aerodrome Forecast
Issued by NWS

Home | Current Version | Previous Version | Graphics & Text | Print | Product List | Glossary On
Versions: 1 2 3 4 5 6 7 8 9 10 11 12 13 14 15 16 17 18 19 20 21
000
FTUS41 KCLE 272300
TAFFDY
TAF
KFDY 272336Z 2800/2824 24011KT P6SM VCTS SCT015 OVC035CB
      TEMPO 2800/2802 3SM -TSRA OVC015CB
     FM280300 29006KT P6SM SCT020 OVC040
     FM280900 31010KT 5SM BR OVC012
      TEMPO 2810/2814 BKN008
     FM281600 34014G22KT P6SM BKN035=

USA.gov is the U.S. government's official web portal to all federal, state and local government web resources and services.